createdAt,value
2022-08-07T00:01:12.614Z,99.90
2022-08-07T00:06:29.522Z,99.90
2022-08-07T00:11:35.864Z,99.90
2022-08-07T00:16:50.313Z,99.90
2022-08-07T00:21:55.569Z,99.90
2022-08-07T00:27:07.221Z,99.90
2022-08-07T00:32:11.505Z,99.90
2022-08-07T00:37:16.989Z,99.90
2022-08-07T00:42:18.788Z,99.90
2022-08-07T00:48:07.548Z,99.90
2022-08-07T00:52:53.723Z,99.90
2022-08-07T00:57:56.379Z,99.90
2022-08-07T01:02:58.678Z,99.90
2022-08-07T01:08:01.179Z,99.90
2022-08-07T01:13:03.581Z,99.90
2022-08-07T01:18:06.860Z,99.90
2022-08-07T01:23:13.113Z,99.90
2022-08-07T01:28:15.251Z,99.90
2022-08-07T01:33:17.384Z,99.90
2022-08-07T01:38:25.258Z,99.90
2022-08-07T01:43:38.052Z,99.90
2022-08-07T01:48:49.811Z,99.90
2022-08-07T01:54:09.130Z,99.90
2022-08-07T01:59:36.303Z,99.90
2022-08-07T02:05:04.837Z,99.90
2022-08-07T02:10:08.356Z,99.90
2022-08-07T02:15:20.833Z,99.90
2022-08-07T02:20:25.471Z,99.90
2022-08-07T02:26:10.589Z,99.90
2022-08-07T02:30:51.516Z,99.90
2022-08-07T02:36:30.864Z,99.90
2022-08-07T02:41:21.568Z,99.90
2022-08-07T02:46:26.430Z,99.90
2022-08-07T02:51:42.701Z,99.90
2022-08-07T02:56:53.572Z,99.90
2022-08-07T03:01:57.653Z,99.90
2022-08-07T03:07:10.316Z,99.90
2022-08-07T03:12:21.614Z,99.90
2022-08-07T03:17:24.484Z,99.90
2022-08-07T03:22:29.560Z,99.90
2022-08-07T03:28:08.899Z,99.90
2022-08-07T03:32:59.167Z,99.90
2022-08-07T03:38:05.316Z,99.90
2022-08-07T03:43:10.086Z,99.90
2022-08-07T03:48:16.313Z,99.90
2022-08-07T03:53:18.150Z,99.90
2022-08-07T03:58:34.532Z,99.90
2022-08-07T04:03:49.664Z,99.90
2022-08-07T04:08:57.871Z,99.90
2022-08-07T04:14:10.407Z,99.90
2022-08-07T04:19:50.953Z,99.90
2022-08-07T04:24:49.075Z,99.90
2022-08-07T04:30:01.147Z,99.90
2022-08-07T04:35:07.067Z,99.90
2022-08-07T04:40:09.711Z,99.90
2022-08-07T04:45:14.468Z,99.90
2022-08-07T04:50:37.533Z,99.90
2022-08-07T04:58:12.863Z,99.90
2022-08-07T05:01:41.665Z,99.90
2022-08-07T05:07:09.588Z,99.90
2022-08-07T05:12:52.828Z,99.90
2022-08-07T05:18:09.249Z,99.90
2022-08-07T05:23:23.074Z,99.90
2022-08-07T05:28:33.736Z,99.90
2022-08-07T05:33:37.738Z,99.90
2022-08-07T05:39:00.803Z,99.90
2022-08-07T05:44:12.284Z,99.90
2022-08-07T05:49:14.883Z,99.90
2022-08-07T05:54:30.906Z,99.90
2022-08-07T05:59:55.818Z,99.90
2022-08-07T06:05:15.482Z,99.40
2022-08-07T06:10:18.111Z,99.90
2022-08-07T06:15:22.140Z,99.90
2022-08-07T06:20:51.061Z,99.90
2022-08-07T06:26:06.521Z,99.90
2022-08-07T06:31:08.907Z,99.90
2022-08-07T06:36:13.637Z,99.90
2022-08-07T06:42:02.566Z,99.90
2022-08-07T06:46:53.361Z,99.90
2022-08-07T06:52:07.408Z,89.70
2022-08-07T06:57:13.334Z,61.90
2022-08-07T07:02:48.461Z,55.50
2022-08-07T07:08:00.074Z,50.20
2022-08-07T07:13:40.859Z,47.30
2022-08-07T07:18:52.498Z,44.00
2022-08-07T07:24:06.491Z,42.00
2022-08-07T07:29:40.245Z,41.90
2022-08-07T07:34:42.280Z,41.00
2022-08-07T07:39:54.389Z,37.70
2022-08-07T07:44:59.728Z,39.10
2022-08-07T07:50:33.222Z,38.90
2022-08-07T07:55:25.400Z,37.30
2022-08-07T08:00:41.354Z,43.00
2022-08-07T08:05:54.286Z,41.70
2022-08-07T08:10:57.958Z,42.00
2022-08-07T08:16:02.450Z,37.20
2022-08-07T08:21:07.576Z,38.90
2022-08-07T08:26:32.781Z,36.30
2022-08-07T08:31:59.164Z,33.80
2022-08-07T08:37:00.014Z,35.80
2022-08-07T08:42:11.692Z,36.90
2022-08-07T08:47:26.314Z,31.00
2022-08-07T08:52:53.883Z,31.20
2022-08-07T08:58:03.813Z,33.90
2022-08-07T09:03:49.938Z,30.90
2022-08-07T09:09:09.445Z,31.40
2022-08-07T09:14:29.558Z,37.10
2022-08-07T09:19:55.415Z,41.70
2022-08-07T09:25:17.522Z,34.70
2022-08-07T09:30:20.705Z,39.80
2022-08-07T09:36:04.629Z,45.50
2022-08-07T09:41:10.300Z,50.40
2022-08-07T09:47:49.519Z,50.00
2022-08-07T09:52:33.811Z,50.80
2022-08-07T09:58:12.319Z,47.20
2022-08-07T10:04:06.580Z,43.10
2022-08-07T10:09:17.327Z,40.40
2022-08-07T10:15:04.084Z,33.90
2022-08-07T10:20:21.854Z,33.90
2022-08-07T10:25:48.179Z,38.60
2022-08-07T10:31:19.028Z,44.20
2022-08-07T10:36:51.355Z,46.60
2022-08-07T10:42:31.208Z,50.10
2022-08-07T10:48:12.888Z,53.40
2022-08-07T10:53:28.482Z,48.60
2022-08-07T10:59:06.638Z,50.30
2022-08-07T11:04:34.696Z,52.90
2022-08-07T11:10:07.252Z,51.10
2022-08-07T11:15:18.720Z,52.70
2022-08-07T11:20:48.459Z,52.20
2022-08-07T11:26:26.011Z,51.10
2022-08-07T11:31:46.462Z,53.00
2022-08-07T11:37:12.654Z,53.60
2022-08-07T11:42:29.766Z,55.60
2022-08-07T11:48:02.579Z,54.50
2022-08-07T11:53:16.793Z,54.70
2022-08-07T11:58:41.628Z,55.60
2022-08-07T12:04:21.088Z,53.00
2022-08-07T12:09:36.117Z,48.60
2022-08-07T12:14:56.185Z,48.60
2022-08-07T12:20:20.819Z,50.80
2022-08-07T12:26:23.390Z,52.30
2022-08-07T12:32:04.365Z,51.40
2022-08-07T12:37:16.786Z,52.20
2022-08-07T12:42:28.545Z,52.50
2022-08-07T12:47:57.027Z,52.50
2022-08-07T12:53:17.398Z,53.70
2022-08-07T12:58:21.442Z,53.10
2022-08-07T13:04:02.926Z,53.60
2022-08-07T13:10:19.879Z,53.70
2022-08-07T13:15:29.690Z,51.40
2022-08-07T13:20:39.857Z,53.10
2022-08-07T13:26:00.848Z,52.80
2022-08-07T13:31:13.915Z,53.40
2022-08-07T13:36:39.362Z,52.20
2022-08-07T13:41:50.288Z,52.00
2022-08-07T13:47:00.012Z,52.80
2022-08-07T13:52:30.690Z,53.80
2022-08-07T13:57:32.217Z,56.20
2022-08-07T14:02:49.425Z,54.80
2022-08-07T14:08:01.362Z,54.70
2022-08-07T14:13:05.493Z,54.80
2022-08-07T14:18:28.873Z,56.00
2022-08-07T14:24:01.236Z,55.80
2022-08-07T14:29:04.324Z,55.10
2022-08-07T14:34:19.949Z,55.80
2022-08-07T14:40:15.607Z,57.30
2022-08-07T14:44:49.391Z,57.70
2022-08-07T14:49:58.153Z,57.20
2022-08-07T14:55:02.729Z,55.10
2022-08-07T15:00:08.131Z,57.30
2022-08-07T15:05:19.631Z,62.90
2022-08-07T15:10:26.509Z,61.00
2022-08-07T15:26:47.732Z,60.80
2022-08-07T15:32:01.595Z,62.00
2022-08-07T15:37:07.084Z,64.30
2022-08-07T15:42:46.487Z,65.10
2022-08-07T15:48:12.533Z,66.60
2022-08-07T15:53:42.250Z,66.20
2022-08-07T15:59:01.107Z,69.10
2022-08-07T16:04:08.517Z,70.60
2022-08-07T16:09:22.870Z,70.50
2022-08-07T16:14:53.620Z,71.60
2022-08-07T16:20:33.702Z,75.00
2022-08-07T16:25:55.300Z,74.50
2022-08-07T16:31:51.409Z,76.30
2022-08-07T16:37:02.798Z,79.20
2022-08-07T16:42:45.060Z,83.10
2022-08-07T16:48:28.440Z,86.10
2022-08-07T16:54:06.121Z,90.50
2022-08-07T16:59:47.506Z,95.40
2022-08-07T17:06:01.456Z,99.90
2022-08-07T17:10:54.602Z,99.90
2022-08-07T17:15:56.887Z,99.90
2022-08-07T17:20:59.324Z,99.90
2022-08-07T17:26:31.427Z,99.90
2022-08-07T17:31:44.332Z,99.90
2022-08-07T17:37:09.763Z,99.90
2022-08-07T17:42:33.103Z,99.90
2022-08-07T17:48:12.730Z,99.90
2022-08-07T17:54:00.374Z,99.90
2022-08-07T17:59:19.936Z,99.90
2022-08-07T18:04:31.176Z,99.90
2022-08-07T18:10:05.674Z,99.90
2022-08-07T18:15:33.181Z,99.90
2022-08-07T18:21:07.069Z,99.90
2022-08-07T18:26:15.264Z,99.90
2022-08-07T18:31:38.911Z,99.90
2022-08-07T18:37:00.269Z,99.90
2022-08-07T18:42:21.710Z,99.90
2022-08-07T18:47:44.608Z,99.90
2022-08-07T18:52:56.659Z,99.90
2022-08-07T18:58:31.711Z,99.90
2022-08-07T19:04:00.198Z,99.90
2022-08-07T19:09:57.263Z,99.90
2022-08-07T19:16:03.623Z,99.90
2022-08-07T19:21:09.215Z,99.90
2022-08-07T19:26:23.200Z,99.90
2022-08-07T19:31:58.557Z,99.90
2022-08-07T19:37:09.577Z,99.90
2022-08-07T19:42:24.539Z,99.90
2022-08-07T19:47:43.197Z,99.90
2022-08-07T19:52:45.213Z,99.90
2022-08-07T19:58:14.247Z,99.90
2022-08-07T20:03:34.168Z,99.90
2022-08-07T20:08:41.572Z,99.90
2022-08-07T20:13:55.064Z,99.90
2022-08-07T20:18:59.001Z,99.90
2022-08-07T20:24:07.438Z,99.90
2022-08-07T20:29:17.040Z,99.90
2022-08-07T20:34:50.887Z,99.90
2022-08-07T20:40:03.705Z,99.90
2022-08-07T20:46:24.091Z,99.90
2022-08-07T20:50:31.737Z,99.90
2022-08-07T20:55:35.811Z,99.90
2022-08-07T21:00:51.273Z,99.90
2022-08-07T21:05:57.128Z,99.90
2022-08-07T21:11:02.725Z,99.90
2022-08-07T21:16:06.196Z,99.90
2022-08-07T21:21:09.315Z,99.90
2022-08-07T21:26:43.621Z,99.90
2022-08-07T21:32:42.730Z,99.90
2022-08-07T21:37:57.871Z,99.90
2022-08-07T21:43:04.569Z,99.90
2022-08-07T21:48:33.310Z,99.90
2022-08-07T21:53:52.720Z,99.90
2022-08-07T21:59:18.486Z,99.90
2022-08-07T22:04:33.976Z,99.90
2022-08-07T22:09:53.854Z,99.90
2022-08-07T22:15:03.608Z,99.90
2022-08-07T22:20:46.989Z,99.90
2022-08-07T22:25:58.358Z,99.90
2022-08-07T22:31:59.544Z,99.90
2022-08-07T22:36:57.925Z,99.90
2022-08-07T22:42:19.795Z,99.90
2022-08-07T22:47:40.109Z,99.90
2022-08-07T22:53:03.566Z,99.90
2022-08-07T22:58:30.217Z,99.90
2022-08-07T23:03:58.530Z,99.90
2022-08-07T23:10:01.093Z,99.90
2022-08-07T23:14:56.568Z,99.90
2022-08-07T23:20:51.518Z,99.90
2022-08-07T23:26:25.345Z,99.90
2022-08-07T23:34:20.272Z,99.90
2022-08-07T23:38:01.685Z,99.90
2022-08-07T23:43:17.454Z,99.90
2022-08-07T23:48:58.718Z,99.90
2022-08-07T23:54:43.938Z,99.90
